sensor_id;sensor_type;location;lat;lon;timestamp;pressure;altitude;pressure_sealevel;temperature;humidity
61035;BME280;46916;40.564;-7.958;2023-07-28T00:00:19;97441.97;;;18.83;68.80
61035;BME280;46916;40.564;-7.958;2023-07-28T00:02:20;97440.97;;;18.84;68.77
61035;BME280;46916;40.564;-7.958;2023-07-28T00:04:20;97437.50;;;18.84;68.83
61035;BME280;46916;40.564;-7.958;2023-07-28T00:06:21;97443.44;;;18.86;68.62
61035;BME280;46916;40.564;-7.958;2023-07-28T00:08:21;97439.59;;;18.88;68.60
61035;BME280;46916;40.564;-7.958;2023-07-28T00:10:22;97434.94;;;18.90;68.37
61035;BME280;46916;40.564;-7.958;2023-07-28T00:12:23;97438.41;;;18.91;68.37
61035;BME280;46916;40.564;-7.958;2023-07-28T00:14:23;97435.94;;;18.89;68.55
61035;BME280;46916;40.564;-7.958;2023-07-28T00:16:25;97430.63;;;18.89;68.57
61035;BME280;46916;40.564;-7.958;2023-07-28T00:18:26;97430.47;;;18.91;68.69
61035;BME280;46916;40.564;-7.958;2023-07-28T00:20:26;97421.69;;;18.90;68.30
61035;BME280;46916;40.564;-7.958;2023-07-28T00:22:27;97427.97;;;18.89;68.52
61035;BME280;46916;40.564;-7.958;2023-07-28T00:24:28;97425.31;;;18.89;68.41
61035;BME280;46916;40.564;-7.958;2023-07-28T00:26:28;97433.28;;;18.89;68.48
61035;BME280;46916;40.564;-7.958;2023-07-28T00:28:29;97433.28;;;18.89;68.36
61035;BME280;46916;40.564;-7.958;2023-07-28T00:30:29;97431.81;;;18.87;68.48
61035;BME280;46916;40.564;-7.958;2023-07-28T00:32:31;97434.03;;;18.83;68.58
61035;BME280;46916;40.564;-7.958;2023-07-28T00:34:31;97424.13;;;18.77;68.75
61035;BME280;46916;40.564;-7.958;2023-07-28T00:36:32;97430.97;;;18.71;69.02
61035;BME280;46916;40.564;-7.958;2023-07-28T00:38:33;97432.31;;;18.67;69.23
61035;BME280;46916;40.564;-7.958;2023-07-28T00:40:34;97429.66;;;18.67;69.07
61035;BME280;46916;40.564;-7.958;2023-07-28T00:42:35;97427.84;;;18.68;69.12
61035;BME280;46916;40.564;-7.958;2023-07-28T00:44:35;97421.06;;;18.65;69.09
61035;BME280;46916;40.564;-7.958;2023-07-28T00:46:35;97422.41;;;18.61;69.13
61035;BME280;46916;40.564;-7.958;2023-07-28T00:48:56;97420.97;;;18.59;69.22
61035;BME280;46916;40.564;-7.958;2023-07-28T00:50:57;97413.63;;;18.61;69.31
61035;BME280;46916;40.564;-7.958;2023-07-28T00:52:57;97414.75;;;18.66;69.11
61035;BME280;46916;40.564;-7.958;2023-07-28T00:54:58;97415.59;;;18.67;68.96
61035;BME280;46916;40.564;-7.958;2023-07-28T00:56:59;97413.28;;;18.64;69.06
61035;BME280;46916;40.564;-7.958;2023-07-28T00:58:59;97406.16;;;18.64;69.12
61035;BME280;46916;40.564;-7.958;2023-07-28T01:01:00;97400.03;;;18.64;69.06
61035;BME280;46916;40.564;-7.958;2023-07-28T01:03:00;97405.53;;;18.62;68.86
61035;BME280;46916;40.564;-7.958;2023-07-28T01:05:01;97400.84;;;18.64;68.87
61035;BME280;46916;40.564;-7.958;2023-07-28T01:09:03;97398.72;;;18.60;69.06
61035;BME280;46916;40.564;-7.958;2023-07-28T01:11:05;97395.63;;;18.56;69.10
61035;BME280;46916;40.564;-7.958;2023-07-28T01:13:06;97391.31;;;18.55;69.14
61035;BME280;46916;40.564;-7.958;2023-07-28T01:15:07;97393.16;;;18.54;69.15
61035;BME280;46916;40.564;-7.958;2023-07-28T01:17:07;97386.03;;;18.55;69.17
61035;BME280;46916;40.564;-7.958;2023-07-28T01:19:08;97389.50;;;18.55;68.98
61035;BME280;46916;40.564;-7.958;2023-07-28T01:21:12;97383.84;;;18.59;69.04
61035;BME280;46916;40.564;-7.958;2023-07-28T01:23:37;97390.44;;;18.63;68.93
61035;BME280;46916;40.564;-7.958;2023-07-28T01:27:49;97390.59;;;18.61;68.94
61035;BME280;46916;40.564;-7.958;2023-07-28T01:29:50;97395.72;;;18.63;68.72
61035;BME280;46916;40.564;-7.958;2023-07-28T01:31:51;97394.72;;;18.64;68.70
61035;BME280;46916;40.564;-7.958;2023-07-28T01:33:51;97392.06;;;18.64;68.68
61035;BME280;46916;40.564;-7.958;2023-07-28T01:35:52;97397.91;;;18.59;68.78
61035;BME280;46916;40.564;-7.958;2023-07-28T01:37:52;97393.63;;;18.58;68.87
61035;BME280;46916;40.564;-7.958;2023-07-28T01:39:53;97389.13;;;18.59;68.81
61035;BME280;46916;40.564;-7.958;2023-07-28T01:41:54;97386.28;;;18.60;68.81
61035;BME280;46916;40.564;-7.958;2023-07-28T01:43:55;97382.81;;;18.60;68.76
61035;BME280;46916;40.564;-7.958;2023-07-28T01:45:56;97395.88;;;18.61;68.66
61035;BME280;46916;40.564;-7.958;2023-07-28T01:47:56;97391.94;;;18.57;68.78
61035;BME280;46916;40.564;-7.958;2023-07-28T01:49:57;97383.38;;;18.55;68.82
61035;BME280;46916;40.564;-7.958;2023-07-28T01:51:57;97386.03;;;18.55;69.01
61035;BME280;46916;40.564;-7.958;2023-07-28T01:53:58;97385.91;;;18.48;69.19
61035;BME280;46916;40.564;-7.958;2023-07-28T01:55:58;97381.81;;;18.46;69.21
61035;BME280;46916;40.564;-7.958;2023-07-28T01:58:01;97388.94;;;18.45;69.20
61035;BME280;46916;40.564;-7.958;2023-07-28T02:00:02;97382.63;;;18.46;69.25
61035;BME280;46916;40.564;-7.958;2023-07-28T02:02:13;97379.16;;;18.46;69.09
61035;BME280;46916;40.564;-7.958;2023-07-28T02:04:14;97376.50;;;18.46;69.09
61035;BME280;46916;40.564;-7.958;2023-07-28T02:06:16;97382.63;;;18.46;69.22
61035;BME280;46916;40.564;-7.958;2023-07-28T02:08:16;97383.44;;;18.47;69.07
61035;BME280;46916;40.564;-7.958;2023-07-28T02:10:17;97379.50;;;18.43;69.15
61035;BME280;46916;40.564;-7.958;2023-07-28T02:12:18;97378.56;;;18.36;69.53
61035;BME280;46916;40.564;-7.958;2023-07-28T02:14:18;97379.47;;;18.28;69.93
61035;BME280;46916;40.564;-7.958;2023-07-28T02:16:19;97373.69;;;18.24;69.98
61035;BME280;46916;40.564;-7.958;2023-07-28T02:18:20;97375.91;;;18.21;70.21
61035;BME280;46916;40.564;-7.958;2023-07-28T02:20:20;97375.53;;;18.24;70.06
61035;BME280;46916;40.564;-7.958;2023-07-28T02:22:21;97372.34;;;18.28;69.90
61035;BME280;46916;40.564;-7.958;2023-07-28T02:24:21;97371.97;;;18.31;69.70
61035;BME280;46916;40.564;-7.958;2023-07-28T02:26:22;97373.28;;;18.36;69.56
61035;BME280;46916;40.564;-7.958;2023-07-28T02:28:22;97379.25;;;18.38;69.64
61035;BME280;46916;40.564;-7.958;2023-07-28T02:30:23;97377.06;;;18.41;69.41
61035;BME280;46916;40.564;-7.958;2023-07-28T02:32:23;97368.09;;;18.42;69.40
61035;BME280;46916;40.564;-7.958;2023-07-28T02:34:24;97369.72;;;18.43;69.35
61035;BME280;46916;40.564;-7.958;2023-07-28T02:36:24;97363.59;;;18.43;69.45
61035;BME280;46916;40.564;-7.958;2023-07-28T02:38:25;97362.94;;;18.41;69.55
61035;BME280;46916;40.564;-7.958;2023-07-28T02:40:25;97355.84;;;18.41;69.39
61035;BME280;46916;40.564;-7.958;2023-07-28T02:42:28;97353.00;;;18.43;69.37
61035;BME280;46916;40.564;-7.958;2023-07-28T02:44:28;97341.56;;;18.42;69.30
61035;BME280;46916;40.564;-7.958;2023-07-28T02:46:29;97355.19;;;18.39;69.36
61035;BME280;46916;40.564;-7.958;2023-07-28T02:48:29;97354.56;;;18.37;69.41
61035;BME280;46916;40.564;-7.958;2023-07-28T02:50:30;97351.59;;;18.32;69.52
61035;BME280;46916;40.564;-7.958;2023-07-28T02:52:30;97348.31;;;18.30;69.58
61035;BME280;46916;40.564;-7.958;2023-07-28T02:54:31;97349.34;;;18.29;69.62
61035;BME280;46916;40.564;-7.958;2023-07-28T02:56:31;97339.72;;;18.28;69.64
61035;BME280;46916;40.564;-7.958;2023-07-28T02:58:35;97333.78;;;18.26;69.72
61035;BME280;46916;40.564;-7.958;2023-07-28T03:00:39;97339.25;;;18.24;69.77
61035;BME280;46916;40.564;-7.958;2023-07-28T03:02:41;97335.78;;;18.24;69.71
61035;BME280;46916;40.564;-7.958;2023-07-28T03:04:41;97338.41;;;18.24;69.81
61035;BME280;46916;40.564;-7.958;2023-07-28T03:07:02;97343.63;;;18.17;69.91
61035;BME280;46916;40.564;-7.958;2023-07-28T03:09:03;97354.41;;;18.16;69.90
61035;BME280;46916;40.564;-7.958;2023-07-28T03:11:23;97355.06;;;18.18;69.89
61035;BME280;46916;40.564;-7.958;2023-07-28T03:13:24;97350.47;;;18.12;69.89
61035;BME280;46916;40.564;-7.958;2023-07-28T03:15:25;97354.31;;;18.09;69.75
61035;BME280;46916;40.564;-7.958;2023-07-28T03:17:25;97352.19;;;18.04;69.23
61035;BME280;46916;40.564;-7.958;2023-07-28T03:19:26;97355.91;;;17.95;69.25
61035;BME280;46916;40.564;-7.958;2023-07-28T03:21:29;97358.91;;;17.92;69.06
61035;BME280;46916;40.564;-7.958;2023-07-28T03:23:29;97362.56;;;17.91;68.87
61035;BME280;46916;40.564;-7.958;2023-07-28T03:25:30;97366.88;;;17.92;68.88
61035;BME280;46916;40.564;-7.958;2023-07-28T03:27:30;97361.56;;;17.92;69.07
61035;BME280;46916;40.564;-7.958;2023-07-28T03:29:31;97359.56;;;17.94;69.01
61035;BME280;46916;40.564;-7.958;2023-07-28T03:31:32;97357.91;;;17.93;69.16
61035;BME280;46916;40.564;-7.958;2023-07-28T03:33:36;97362.41;;;17.93;69.41
61035;BME280;46916;40.564;-7.958;2023-07-28T03:35:36;97361.56;;;17.92;69.48
61035;BME280;46916;40.564;-7.958;2023-07-28T03:37:42;97350.13;;;17.92;69.66
61035;BME280;46916;40.564;-7.958;2023-07-28T03:39:42;97342.38;;;17.90;69.99
61035;BME280;46916;40.564;-7.958;2023-07-28T03:41:43;97356.63;;;17.89;70.08
61035;BME280;46916;40.564;-7.958;2023-07-28T03:43:43;97354.78;;;17.90;70.13
61035;BME280;46916;40.564;-7.958;2023-07-28T03:45:44;97357.44;;;17.90;70.17
61035;BME280;46916;40.564;-7.958;2023-07-28T03:47:45;97349.03;;;17.86;70.13
61035;BME280;46916;40.564;-7.958;2023-07-28T03:49:45;97350.03;;;17.85;70.17
61035;BME280;46916;40.564;-7.958;2023-07-28T03:51:46;97347.53;;;17.83;70.09
61035;BME280;46916;40.564;-7.958;2023-07-28T03:53:46;97347.53;;;17.83;70.14
61035;BME280;46916;40.564;-7.958;2023-07-28T03:55:47;97342.44;;;17.82;70.16
61035;BME280;46916;40.564;-7.958;2023-07-28T03:57:48;97349.75;;;17.80;70.18
61035;BME280;46916;40.564;-7.958;2023-07-28T03:59:48;97343.78;;;17.78;70.43
61035;BME280;46916;40.564;-7.958;2023-07-28T04:01:48;97340.13;;;17.79;70.43
61035;BME280;46916;40.564;-7.958;2023-07-28T04:03:49;97336.50;;;17.80;70.49
61035;BME280;46916;40.564;-7.958;2023-07-28T04:05:50;97341.63;;;17.73;70.81
61035;BME280;46916;40.564;-7.958;2023-07-28T04:07:50;97344.78;;;17.77;70.57
61035;BME280;46916;40.564;-7.958;2023-07-28T04:09:50;97339.31;;;17.78;70.24
61035;BME280;46916;40.564;-7.958;2023-07-28T04:11:51;97346.09;;;17.81;69.98
61035;BME280;46916;40.564;-7.958;2023-07-28T04:13:51;97345.41;;;17.79;70.00
61035;BME280;46916;40.564;-7.958;2023-07-28T04:15:52;97352.06;;;17.75;69.88
61035;BME280;46916;40.564;-7.958;2023-07-28T04:17:52;97351.41;;;17.73;69.98
61035;BME280;46916;40.564;-7.958;2023-07-28T04:19:53;97348.34;;;17.61;70.30
61035;BME280;46916;40.564;-7.958;2023-07-28T04:21:53;97354.81;;;17.58;70.32
61035;BME280;46916;40.564;-7.958;2023-07-28T04:23:54;97349.22;;;17.53;70.28
61035;BME280;46916;40.564;-7.958;2023-07-28T04:25:55;97346.28;;;17.48;70.37
61035;BME280;46916;40.564;-7.958;2023-07-28T04:27:56;97351.91;;;17.45;70.31
61035;BME280;46916;40.564;-7.958;2023-07-28T04:29:56;97350.09;;;17.46;70.32
61035;BME280;46916;40.564;-7.958;2023-07-28T04:31:59;97351.72;;;17.47;70.30
61035;BME280;46916;40.564;-7.958;2023-07-28T04:34:05;97356.41;;;17.45;70.08
61035;BME280;46916;40.564;-7.958;2023-07-28T04:36:25;97349.31;;;17.37;70.29
61035;BME280;46916;40.564;-7.958;2023-07-28T04:38:25;97348.22;;;17.31;70.31
61035;BME280;46916;40.564;-7.958;2023-07-28T04:40:31;97347.09;;;17.18;70.60
61035;BME280;46916;40.564;-7.958;2023-07-28T04:42:32;97347.97;;;17.10;70.74
61035;BME280;46916;40.564;-7.958;2023-07-28T04:44:33;97359.44;;;17.02;71.25
61035;BME280;46916;40.564;-7.958;2023-07-28T04:46:36;97364.88;;;17.01;71.23
61035;BME280;46916;40.564;-7.958;2023-07-28T04:48:41;97360.94;;;16.97;71.44
61035;BME280;46916;40.564;-7.958;2023-07-28T04:51:02;97359.47;;;16.94;71.46
61035;BME280;46916;40.564;-7.958;2023-07-28T04:53:34;97369.53;;;16.99;71.37
61035;BME280;46916;40.564;-7.958;2023-07-28T04:55:44;97371.66;;;17.03;71.20
61035;BME280;46916;40.564;-7.958;2023-07-28T04:57:44;97374.78;;;17.07;70.88
61035;BME280;46916;40.564;-7.958;2023-07-28T04:59:45;97365.50;;;17.11;70.52
61035;BME280;46916;40.564;-7.958;2023-07-28T05:01:45;97369.47;;;17.15;70.51
61035;BME280;46916;40.564;-7.958;2023-07-28T05:04:04;97362.69;;;17.13;70.76
61035;BME280;46916;40.564;-7.958;2023-07-28T05:06:05;97356.38;;;17.14;71.01
61035;BME280;46916;40.564;-7.958;2023-07-28T05:08:06;97361.53;;;17.15;71.03
61035;BME280;46916;40.564;-7.958;2023-07-28T05:10:07;97357.69;;;17.18;70.80
61035;BME280;46916;40.564;-7.958;2023-07-28T05:12:08;97360.19;;;17.19;70.58
61035;BME280;46916;40.564;-7.958;2023-07-28T05:14:16;97370.75;;;17.19;70.63
61035;BME280;46916;40.564;-7.958;2023-07-28T05:16:17;97358.34;;;17.20;70.34
61035;BME280;46916;40.564;-7.958;2023-07-28T05:18:50;97365.09;;;17.22;70.19
61035;BME280;46916;40.564;-7.958;2023-07-28T05:21:28;97365.78;;;17.24;70.17
61035;BME280;46916;40.564;-7.958;2023-07-28T05:23:29;97362.81;;;17.19;70.28
61035;BME280;46916;40.564;-7.958;2023-07-28T05:25:30;97366.97;;;17.14;70.45
61035;BME280;46916;40.564;-7.958;2023-07-28T05:27:30;97371.44;;;17.13;70.32
61035;BME280;46916;40.564;-7.958;2023-07-28T05:29:31;97372.94;;;17.16;70.25
61035;BME280;46916;40.564;-7.958;2023-07-28T05:31:37;97368.63;;;17.15;70.02
61035;BME280;46916;40.564;-7.958;2023-07-28T05:33:40;97370.09;;;17.17;69.89
61035;BME280;46916;40.564;-7.958;2023-07-28T05:35:41;97369.94;;;17.19;69.44
61035;BME280;46916;40.564;-7.958;2023-07-28T05:37:41;97371.59;;;17.20;69.01
61035;BME280;46916;40.564;-7.958;2023-07-28T05:39:42;97369.94;;;17.19;68.82
61035;BME280;46916;40.564;-7.958;2023-07-28T05:41:43;97366.63;;;17.17;68.87
61035;BME280;46916;40.564;-7.958;2023-07-28T05:43:45;97374.09;;;17.13;69.29
61035;BME280;46916;40.564;-7.958;2023-07-28T05:45:46;97373.94;;;17.15;69.60
61035;BME280;46916;40.564;-7.958;2023-07-28T05:47:47;97373.09;;;17.14;69.89
61035;BME280;46916;40.564;-7.958;2023-07-28T05:49:47;97383.50;;;17.16;70.07
61035;BME280;46916;40.564;-7.958;2023-07-28T05:51:48;97385.16;;;17.17;69.95
61035;BME280;46916;40.564;-7.958;2023-07-28T05:53:49;97379.69;;;17.18;70.02
61035;BME280;46916;40.564;-7.958;2023-07-28T05:55:53;97385.44;;;17.22;70.32
61035;BME280;46916;40.564;-7.958;2023-07-28T05:57:54;97390.22;;;17.26;70.37
61035;BME280;46916;40.564;-7.958;2023-07-28T05:59:54;97391.38;;;17.32;70.44
61035;BME280;46916;40.564;-7.958;2023-07-28T06:01:55;97390.84;;;17.37;70.33
61035;BME280;46916;40.564;-7.958;2023-07-28T06:04:05;97393.31;;;17.38;70.36
61035;BME280;46916;40.564;-7.958;2023-07-28T06:06:12;97388.84;;;17.39;70.36
61035;BME280;46916;40.564;-7.958;2023-07-28T06:08:13;97390.03;;;17.36;70.45
61035;BME280;46916;40.564;-7.958;2023-07-28T06:10:14;97391.50;;;17.39;70.07
61035;BME280;46916;40.564;-7.958;2023-07-28T06:12:14;97398.94;;;17.43;69.45
61035;BME280;46916;40.564;-7.958;2023-07-28T06:14:16;97406.16;;;17.49;68.65
61035;BME280;46916;40.564;-7.958;2023-07-28T06:16:17;97405.81;;;17.52;68.61
61035;BME280;46916;40.564;-7.958;2023-07-28T06:18:19;97415.41;;;17.53;68.74
61035;BME280;46916;40.564;-7.958;2023-07-28T06:20:25;97410.47;;;17.50;68.95
61035;BME280;46916;40.564;-7.958;2023-07-28T06:22:25;97412.94;;;17.52;68.55
61035;BME280;46916;40.564;-7.958;2023-07-28T06:24:26;97414.59;;;17.53;68.26
61035;BME280;46916;40.564;-7.958;2023-07-28T06:26:26;97415.41;;;17.53;68.18
61035;BME280;46916;40.564;-7.958;2023-07-28T06:28:27;97413.44;;;17.55;68.13
61035;BME280;46916;40.564;-7.958;2023-07-28T06:30:27;97417.53;;;17.58;68.42
61035;BME280;46916;40.564;-7.958;2023-07-28T06:32:28;97416.53;;;17.59;68.41
61035;BME280;46916;40.564;-7.958;2023-07-28T06:34:28;97416.84;;;17.64;68.44
61035;BME280;46916;40.564;-7.958;2023-07-28T06:36:29;97419.13;;;17.67;68.46
61035;BME280;46916;40.564;-7.958;2023-07-28T06:38:30;97423.09;;;17.71;68.48
61035;BME280;46916;40.564;-7.958;2023-07-28T06:40:30;97422.63;;;17.76;68.44
61035;BME280;46916;40.564;-7.958;2023-07-28T06:42:32;97431.00;;;17.79;68.53
61035;BME280;46916;40.564;-7.958;2023-07-28T06:44:35;97426.84;;;17.85;68.35
61035;BME280;46916;40.564;-7.958;2023-07-28T06:46:36;97424.50;;;17.90;68.36
61035;BME280;46916;40.564;-7.958;2023-07-28T06:48:37;97431.09;;;17.94;68.14
61035;BME280;46916;40.564;-7.958;2023-07-28T06:50:38;97433.75;;;17.94;68.27
61035;BME280;46916;40.564;-7.958;2023-07-28T06:52:39;97443.00;;;17.98;68.12
61035;BME280;46916;40.564;-7.958;2023-07-28T06:54:39;97435.03;;;17.98;68.04
61035;BME280;46916;40.564;-7.958;2023-07-28T06:56:41;97441.16;;;17.99;68.05
61035;BME280;46916;40.564;-7.958;2023-07-28T06:58:41;97443.34;;;17.95;68.20
61035;BME280;46916;40.564;-7.958;2023-07-28T07:00:42;97444.34;;;17.94;68.49
61035;BME280;46916;40.564;-7.958;2023-07-28T07:02:43;97446.31;;;18.00;68.39
61035;BME280;46916;40.564;-7.958;2023-07-28T07:04:43;97439.81;;;18.03;68.26
61035;BME280;46916;40.564;-7.958;2023-07-28T07:06:44;97439.16;;;18.01;68.42
61035;BME280;46916;40.564;-7.958;2023-07-28T07:08:45;97443.47;;;18.02;68.22
61035;BME280;46916;40.564;-7.958;2023-07-28T07:10:49;97443.28;;;18.03;68.40
61035;BME280;46916;40.564;-7.958;2023-07-28T07:12:52;97438.44;;;18.07;67.99
61035;BME280;46916;40.564;-7.958;2023-07-28T07:14:53;97444.03;;;18.12;67.88
61035;BME280;46916;40.564;-7.958;2023-07-28T07:16:54;97439.53;;;18.21;67.61
61035;BME280;46916;40.564;-7.958;2023-07-28T07:18:54;97448.94;;;18.23;67.50
61035;BME280;46916;40.564;-7.958;2023-07-28T07:20:55;97442.81;;;18.23;67.58
61035;BME280;46916;40.564;-7.958;2023-07-28T07:22:55;97451.03;;;18.28;67.43
61035;BME280;46916;40.564;-7.958;2023-07-28T07:24:56;97450.69;;;18.31;67.47
61035;BME280;46916;40.564;-7.958;2023-07-28T07:26:57;97449.16;;;18.37;67.26
61035;BME280;46916;40.564;-7.958;2023-07-28T07:28:57;97445.66;;;18.21;67.62
61035;BME280;46916;40.564;-7.958;2023-07-28T07:30:58;97458.31;;;18.11;68.25
61035;BME280;46916;40.564;-7.958;2023-07-28T07:32:58;97454.59;;;17.97;68.77
61035;BME280;46916;40.564;-7.958;2023-07-28T07:34:58;97452.16;;;17.88;69.09
61035;BME280;46916;40.564;-7.958;2023-07-28T07:36:59;97459.16;;;17.80;69.47
61035;BME280;46916;40.564;-7.958;2023-07-28T07:38:59;97456.69;;;17.79;69.84
61035;BME280;46916;40.564;-7.958;2023-07-28T07:41:00;97455.34;;;17.83;69.83
61035;BME280;46916;40.564;-7.958;2023-07-28T07:43:02;97456.28;;;17.90;69.95
61035;BME280;46916;40.564;-7.958;2023-07-28T07:45:03;97461.88;;;17.95;69.74
61035;BME280;46916;40.564;-7.958;2023-07-28T07:47:11;97465.97;;;18.06;69.51
61035;BME280;46916;40.564;-7.958;2023-07-28T07:49:12;97461.72;;;18.20;69.31
61035;BME280;46916;40.564;-7.958;2023-07-28T07:51:12;97468.56;;;18.37;68.82
61035;BME280;46916;40.564;-7.958;2023-07-28T07:53:13;97466.81;;;18.44;68.70
61035;BME280;46916;40.564;-7.958;2023-07-28T07:55:13;97469.47;;;18.44;68.70
61035;BME280;46916;40.564;-7.958;2023-07-28T07:57:14;97463.63;;;18.49;68.66
61035;BME280;46916;40.564;-7.958;2023-07-28T07:59:14;97471.44;;;18.50;68.51
61035;BME280;46916;40.564;-7.958;2023-07-28T08:01:15;97472.06;;;18.52;68.67
61035;BME280;46916;40.564;-7.958;2023-07-28T08:03:15;97465.41;;;18.56;68.75
61035;BME280;46916;40.564;-7.958;2023-07-28T08:05:16;97455.72;;;18.64;68.45
61035;BME280;46916;40.564;-7.958;2023-07-28T08:07:16;97459.97;;;18.73;68.32
61035;BME280;46916;40.564;-7.958;2023-07-28T08:09:17;97454.88;;;18.86;67.67
61035;BME280;46916;40.564;-7.958;2023-07-28T08:11:17;97465.03;;;18.83;67.71
61035;BME280;46916;40.564;-7.958;2023-07-28T08:13:18;97466.69;;;18.84;67.86
61035;BME280;46916;40.564;-7.958;2023-07-28T08:15:19;97463.47;;;18.88;67.72
61035;BME280;46916;40.564;-7.958;2023-07-28T08:17:19;97460.63;;;18.90;67.62
61035;BME280;46916;40.564;-7.958;2023-07-28T08:19:20;97454.69;;;18.88;67.52
61035;BME280;46916;40.564;-7.958;2023-07-28T08:21:20;97460.56;;;18.83;67.96
61035;BME280;46916;40.564;-7.958;2023-07-28T08:23:22;97451.13;;;18.80;67.86
61035;BME280;46916;40.564;-7.958;2023-07-28T08:25:23;97455.31;;;18.90;67.97
61035;BME280;46916;40.564;-7.958;2023-07-28T08:27:24;97454.41;;;18.97;67.68
61035;BME280;46916;40.564;-7.958;2023-07-28T08:29:24;97452.59;;;18.98;67.47
61035;BME280;46916;40.564;-7.958;2023-07-28T08:31:26;97444.00;;;18.96;67.75
61035;BME280;46916;40.564;-7.958;2023-07-28T08:33:26;97445.56;;;18.90;68.01
61035;BME280;46916;40.564;-7.958;2023-07-28T08:35:27;97452.25;;;18.86;68.02
61035;BME280;46916;40.564;-7.958;2023-07-28T08:37:27;97444.91;;;18.88;67.83
61035;BME280;46916;40.564;-7.958;2023-07-28T08:39:28;97451.22;;;18.87;68.43
61035;BME280;46916;40.564;-7.958;2023-07-28T08:41:29;97447.91;;;18.85;68.51
61035;BME280;46916;40.564;-7.958;2023-07-28T08:43:29;97448.38;;;18.89;68.42
61035;BME280;46916;40.564;-7.958;2023-07-28T08:45:30;97444.94;;;19.03;68.19
61035;BME280;46916;40.564;-7.958;2023-07-28T08:47:31;97443.72;;;19.20;67.64
61035;BME280;46916;40.564;-7.958;2023-07-28T08:49:31;97445.00;;;19.39;66.70
61035;BME280;46916;40.564;-7.958;2023-07-28T08:51:33;97444.16;;;19.53;66.50
61035;BME280;46916;40.564;-7.958;2023-07-28T08:53:33;97448.00;;;19.66;66.05
61035;BME280;46916;40.564;-7.958;2023-07-28T08:55:34;97446.06;;;19.74;65.54
61035;BME280;46916;40.564;-7.958;2023-07-28T08:57:34;97442.56;;;19.74;64.97
61035;BME280;46916;40.564;-7.958;2023-07-28T08:59:35;97445.72;;;19.63;65.41
61035;BME280;46916;40.564;-7.958;2023-07-28T09:01:39;97447.72;;;19.46;66.04
61035;BME280;46916;40.564;-7.958;2023-07-28T09:03:43;97447.00;;;19.37;66.42
61035;BME280;46916;40.564;-7.958;2023-07-28T09:05:44;97443.81;;;19.27;66.67
61035;BME280;46916;40.564;-7.958;2023-07-28T09:07:46;97443.63;;;19.28;66.79
61035;BME280;46916;40.564;-7.958;2023-07-28T09:09:48;97449.09;;;19.42;66.53
61035;BME280;46916;40.564;-7.958;2023-07-28T09:11:51;97442.31;;;19.54;66.00
61035;BME280;46916;40.564;-7.958;2023-07-28T09:13:53;97445.72;;;19.63;65.62
61035;BME280;46916;40.564;-7.958;2023-07-28T09:15:54;97444.88;;;19.62;65.60
61035;BME280;46916;40.564;-7.958;2023-07-28T09:17:55;97445.72;;;19.63;65.83
61035;BME280;46916;40.564;-7.958;2023-07-28T09:19:56;97440.69;;;19.68;65.46
61035;BME280;46916;40.564;-7.958;2023-07-28T09:22:01;97437.72;;;19.77;65.66
61035;BME280;46916;40.564;-7.958;2023-07-28T09:24:05;97440.44;;;19.84;65.28
61035;BME280;46916;40.564;-7.958;2023-07-28T09:26:06;97445.00;;;19.90;65.34
61035;BME280;46916;40.564;-7.958;2023-07-28T09:28:08;97440.59;;;19.97;64.98
61035;BME280;46916;40.564;-7.958;2023-07-28T09:30:09;97451.91;;;20.06;64.65
61035;BME280;46916;40.564;-7.958;2023-07-28T09:32:10;97454.66;;;20.13;64.34
61035;BME280;46916;40.564;-7.958;2023-07-28T09:34:10;97449.59;;;20.18;63.96
61035;BME280;46916;40.564;-7.958;2023-07-28T09:36:12;97449.22;;;20.21;63.79
61035;BME280;46916;40.564;-7.958;2023-07-28T09:38:13;97437.34;;;20.23;63.92
61035;BME280;46916;40.564;-7.958;2023-07-28T09:40:15;97439.84;;;20.25;63.75
61035;BME280;46916;40.564;-7.958;2023-07-28T09:42:16;97442.28;;;20.26;63.88
61035;BME280;46916;40.564;-7.958;2023-07-28T09:44:17;97439.88;;;20.32;64.12
61035;BME280;46916;40.564;-7.958;2023-07-28T09:46:17;97435.81;;;20.36;64.15
61035;BME280;46916;40.564;-7.958;2023-07-28T09:48:19;97436.28;;;20.39;63.86
61035;BME280;46916;40.564;-7.958;2023-07-28T09:50:21;97441.81;;;20.44;63.73
61035;BME280;46916;40.564;-7.958;2023-07-28T09:52:23;97440.47;;;20.48;63.63
61035;BME280;46916;40.564;-7.958;2023-07-28T09:54:25;97434.56;;;20.53;63.49
61035;BME280;46916;40.564;-7.958;2023-07-28T09:56:29;97432.34;;;20.57;63.21
61035;BME280;46916;40.564;-7.958;2023-07-28T09:58:31;97435.66;;;20.59;63.18
61035;BME280;46916;40.564;-7.958;2023-07-28T10:00:34;97433.38;;;20.56;62.90
61035;BME280;46916;40.564;-7.958;2023-07-28T10:02:35;97438.88;;;20.54;62.28
61035;BME280;46916;40.564;-7.958;2023-07-28T10:04:36;97438.44;;;20.50;62.74
61035;BME280;46916;40.564;-7.958;2023-07-28T10:06:37;97438.06;;;20.53;62.79
61035;BME280;46916;40.564;-7.958;2023-07-28T10:08:38;97438.31;;;20.59;62.83
61035;BME280;46916;40.564;-7.958;2023-07-28T10:10:40;97433.22;;;20.64;62.69
61035;BME280;46916;40.564;-7.958;2023-07-28T10:12:51;97432.84;;;20.67;62.37
61035;BME280;46916;40.564;-7.958;2023-07-28T10:15:03;97439.81;;;20.68;62.33
61035;BME280;46916;40.564;-7.958;2023-07-28T10:17:04;97433.06;;;20.72;62.58
61035;BME280;46916;40.564;-7.958;2023-07-28T10:19:06;97433.31;;;20.77;62.01
61035;BME280;46916;40.564;-7.958;2023-07-28T10:21:10;97430.91;;;20.82;61.83
61035;BME280;46916;40.564;-7.958;2023-07-28T10:23:14;97427.47;;;20.88;61.42
61035;BME280;46916;40.564;-7.958;2023-07-28T10:25:21;97433.41;;;20.90;61.14
61035;BME280;46916;40.564;-7.958;2023-07-28T10:27:35;97428.31;;;20.95;60.81
61035;BME280;46916;40.564;-7.958;2023-07-28T10:29:37;97424.44;;;20.98;60.45
61035;BME280;46916;40.564;-7.958;2023-07-28T10:31:52;97418.56;;;21.02;60.53
61035;BME280;46916;40.564;-7.958;2023-07-28T10:33:58;97416.72;;;21.10;59.76
61035;BME280;46916;40.564;-7.958;2023-07-28T10:38:28;97418.19;;;21.12;60.15
61035;BME280;46916;40.564;-7.958;2023-07-28T10:40:31;97418.22;;;21.19;60.07
61035;BME280;46916;40.564;-7.958;2023-07-28T10:42:34;97417.63;;;21.23;59.95
61035;BME280;46916;40.564;-7.958;2023-07-28T10:44:36;97413.72;;;21.26;60.24